OK45 weather

Collinsville Rural Fire District Heliport
Collinsville, Oklahoma, United States

Public forecast

Using degrees Fahrenheit for public forecast. Weather courtesy of forecast.io.

METAR (pilot weather report)

Closest report is Tulsa International Airport, 9.6 nm (17.9 km) SSW. Retrieved 2019/04/26 00:53 UTC (46 minutes ago):

KTUL 260053Z 33011KT 10SM FEW055 20/11 A2992 RMK AO2 PK WND 34026/2358 SLP129 T02000111

TAF (pilot weather forecast)

Forecast is more than 12 hours old.

Closest forecast is Tulsa International Airport, 9.6 nm (17.9 km) SSW. Retrieved 2019/04/25 00:22 UTC (1 day ago):

TAF KTUL 252320Z 2600/2624 33019G25KT P6SM SCT060 FM260200 35006KT P6SM SKC FM262000 14005KT P6SM FEW250